Thomas, West Virginia
Current Conditions -  °F | °C
As of 10:15 AM on Thursday 30 Oct 2014 (Local Time) from KW99 Reporting Station
Overcast Overcast  
Wind Chill: 47°   Ceiling: 4200
Heat Index: 47°   Visibility: 10mi
Dew Point: 42°   Wind: 0mph
Humidity: 83%   Direction: NA
Pressure: 30.11"   Gusts: NA
Location:  39.15°N, 79.5°W
Report Text: KW99 301415Z AUTO 00000KT 10SM OVC042 08/06 A3011 RMK AO2 T00840056
Loading
Personal Weather Stations






























Interactive Weather Map
Tropical Storm Tracking
New forecast layout! Learn more

10-Day Weather Forecast

Advertisements
Track Severe Weather on mobile